Time;durP1;ratioP1;P1;durP2;ratioP2;P2;SDS_P1;SDS_P2;PMS_P1;PMS_P2;Temp;Humidity;BMP_temperature;BMP_pressure;BME280_temperature;BME280_humidity;BME280_pressure;Samples;Min_cycle;Max_cycle;Signal;HPM_P1;HPM_P2
2021/04/15 00:00:29;;;;;;;0.68;0.68;;;5.50;70.30;;;;;;5073297;28;20023;-70
2021/04/15 00:02:58;;;;;;;2.65;0.88;;;5.50;70.40;;;;;;5074961;28;20035;-70
2021/04/15 00:05:29;;;;;;;2.15;0.90;;;5.50;70.40;;;;;;5074585;28;20053;-70
2021/04/15 00:07:56;;;;;;;2.17;1.10;;;5.40;70.40;;;;;;5073314;28;20059;-70
2021/04/15 00:10:31;;;;;;;1.45;0.80;;;5.40;70.60;;;;;;5073608;28;20032;-70
2021/04/15 00:12:57;;;;;;;3.47;1.02;;;5.40;70.70;;;;;;5073058;28;20020;-70
2021/04/15 00:15:27;;;;;;;1.70;0.90;;;5.40;70.90;;;;;;5072541;28;20055;-70
2021/04/15 00:17:53;;;;;;;3.42;1.20;;;5.40;71.60;;;;;;5072792;28;20082;-70
2021/04/15 00:20:21;;;;;;;1.75;1.10;;;5.40;70.90;;;;;;5072993;28;20392;-70
2021/04/15 00:22:46;;;;;;;1.13;0.90;;;5.40;71.10;;;;;;5073149;28;20029;-70
2021/04/15 00:25:12;;;;;;;1.05;0.77;;;5.40;71.30;;;;;;5072806;28;20030;-70
2021/04/15 00:27:38;;;;;;;1.17;0.77;;;5.30;71.30;;;;;;5073152;28;20496;-69
2021/04/15 00:30:06;;;;;;;1.65;0.75;;;5.30;71.80;;;;;;5074196;28;20024;-71
2021/04/15 00:32:32;;;;;;;2.67;0.70;;;5.30;72.00;;;;;;5074005;28;20406;-70
2021/04/15 00:34:57;;;;;;;2.85;0.68;;;5.20;72.20;;;;;;5072704;28;20119;-70
2021/04/15 00:37:23;;;;;;;1.00;0.60;;;5.20;72.40;;;;;;5073895;28;20106;-70
2021/04/15 00:39:48;;;;;;;2.10;0.63;;;5.30;72.60;;;;;;5073867;28;20111;-70
2021/04/15 00:42:15;;;;;;;0.80;0.35;;;5.30;72.80;;;;;;5074362;28;20475;-71
2021/04/15 00:44:41;;;;;;;1.02;0.50;;;5.30;72.90;;;;;;5072353;28;20387;-70
2021/04/15 00:47:12;;;;;;;0.30;0.30;;;5.30;73.00;;;;;;5074199;28;20031;-70
2021/04/15 00:49:47;;;;;;;2.92;0.47;;;5.30;73.10;;;;;;5072476;28;20025;-70
2021/04/15 00:52:19;;;;;;;1.05;0.20;;;5.30;73.40;;;;;;5073817;28;20042;-70
2021/04/15 00:54:55;;;;;;;1.38;0.32;;;5.30;73.60;;;;;;5072467;28;20052;-70
2021/04/15 00:57:30;;;;;;;0.57;0.40;;;5.30;74.10;;;;;;5073737;28;20431;-70
2021/04/15 00:59:57;;;;;;;1.20;0.43;;;5.20;74.40;;;;;;5072313;28;20024;-70
2021/04/15 01:02:25;;;;;;;0.80;0.47;;;5.10;74.50;;;;;;5072365;28;20451;-70
2021/04/15 01:04:53;;;;;;;0.80;0.30;;;5.10;74.90;;;;;;5073593;28;20027;-70
2021/04/15 01:07:19;;;;;;;0.60;0.30;;;5.20;75.30;;;;;;5073714;28;20029;-70
2021/04/15 01:09:47;;;;;;;0.40;0.35;;;5.20;75.50;;;;;;5072225;28;20028;-70
2021/04/15 01:12:30;;;;;;;1.38;0.50;;;5.20;75.50;;;;;;5073475;28;20052;-70
2021/04/15 01:15:07;;;;;;;0.43;0.30;;;5.20;75.80;;;;;;5073490;28;20025;-69
2021/04/15 01:17:39;;;;;;;2.30;0.30;;;5.30;76.00;;;;;;5073502;28;20032;-70
2021/04/15 01:20:26;;;;;;;1.70;0.47;;;5.30;76.00;;;;;;5072135;28;20028;-70
2021/04/15 01:22:54;;;;;;;0.52;0.30;;;5.30;76.20;;;;;;5071971;28;20172;-69
2021/04/15 01:25:32;;;;;;;0.70;0.30;;;5.30;76.20;;;;;;5071591;28;20039;-70
2021/04/15 01:28:21;;;;;;;0.32;0.22;;;5.30;76.30;;;;;;5073040;28;20489;-70
2021/04/15 01:31:12;;;;;;;0.10;0.10;;;5.20;76.30;;;;;;5071860;28;20110;-70
2021/04/15 01:33:42;;;;;;;0.30;0.30;;;5.10;76.40;;;;;;5073360;28;20071;-70
2021/04/15 01:36:18;;;;;;;0.50;0.45;;;5.00;76.50;;;;;;5073410;28;20028;-69
2021/04/15 01:38:56;;;;;;;0.22;0.20;;;5.00;76.70;;;;;;5071928;28;20387;-70
2021/04/15 01:41:33;;;;;;;0.13;0.13;;;5.00;76.80;;;;;;5071821;28;20488;-70
2021/04/15 01:44:04;;;;;;;0.57;0.25;;;5.00;77.00;;;;;;5073118;28;20032;-70
2021/04/15 01:46:37;;;;;;;0.30;0.28;;;5.00;77.00;;;;;;5071789;28;20029;-69
2021/04/15 01:49:07;;;;;;;1.20;0.28;;;5.10;77.10;;;;;;5071581;28;20025;-70
2021/04/15 01:51:39;;;;;;;0.75;0.25;;;5.10;77.20;;;;;;5071776;28;20115;-69
2021/04/15 01:54:35;;;;;;;0.20;0.20;;;5.10;77.20;;;;;;5073052;28;20028;-70
2021/04/15 01:57:13;;;;;;;0.57;0.38;;;5.10;77.30;;;;;;5068674;28;20061;-70
2021/04/15 01:59:49;;;;;;;2.67;0.30;;;5.20;77.40;;;;;;5072987;28;20092;-70
2021/04/15 02:02:16;;;;;;;0.30;0.30;;;5.20;77.50;;;;;;5072991;28;20029;-69
2021/04/15 02:04:52;;;;;;;1.33;0.30;;;5.30;77.60;;;;;;5072846;28;20100;-70
2021/04/15 02:07:19;;;;;;;0.73;0.40;;;5.30;77.60;;;;;;5071494;28;20028;-70
2021/04/15 02:09:48;;;;;;;1.45;0.32;;;5.30;77.40;;;;;;5071431;28;20020;-70
2021/04/15 02:12:23;;;;;;;1.02;0.45;;;5.40;77.50;;;;;;5072862;28;20535;-70
2021/04/15 02:14:58;;;;;;;0.22;0.20;;;5.40;77.40;;;;;;5071504;28;20045;-70
2021/04/15 02:17:25;;;;;;;1.25;0.40;;;5.40;77.40;;;;;;5071443;28;20054;-70
2021/04/15 02:19:58;;;;;;;0.80;0.40;;;5.50;77.30;;;;;;5071791;28;20046;-70
2021/04/15 02:22:44;;;;;;;0.70;0.38;;;5.50;77.30;;;;;;5071503;28;20357;-70
2021/04/15 02:25:14;;;;;;;1.23;0.40;;;5.50;77.50;;;;;;5072759;28;20026;-70
2021/04/15 02:28:05;;;;;;;1.27;0.50;;;5.60;77.40;;;;;;5072660;28;20017;-70
2021/04/15 02:30:39;;;;;;;0.90;0.45;;;5.60;77.40;;;;;;5071396;28;20128;-70
2021/04/15 02:33:17;;;;;;;0.77;0.40;;;5.50;77.20;;;;;;5072535;28;20051;-70
2021/04/15 02:35:49;;;;;;;1.17;0.50;;;5.60;77.40;;;;;;5071231;28;20035;-70
2021/04/15 02:38:21;;;;;;;0.95;0.43;;;5.60;77.40;;;;;;5075049;28;20037;-70
2021/04/15 02:41:00;;;;;;;0.77;0.30;;;5.70;77.50;;;;;;5076290;28;20036;-70
2021/04/15 02:43:43;;;;;;;1.75;0.60;;;5.70;77.50;;;;;;5075033;28;20033;-70
2021/04/15 02:46:14;;;;;;;1.00;0.40;;;5.70;77.50;;;;;;5074955;28;20131;-70
2021/04/15 02:48:42;;;;;;;2.13;0.47;;;5.80;77.60;;;;;;5074844;28;20032;-70
2021/04/15 02:51:22;;;;;;;1.13;0.60;;;5.70;77.60;;;;;;5074808;28;20388;-70
2021/04/15 02:54:01;;;;;;;1.75;0.50;;;5.80;77.80;;;;;;5076037;28;20032;-70
2021/04/15 02:56:56;;;;;;;0.50;0.40;;;5.80;77.80;;;;;;5076124;28;20133;-70
2021/04/15 02:59:39;;;;;;;1.25;0.40;;;5.80;77.80;;;;;;5075487;28;20037;-70
2021/04/15 03:02:08;;;;;;;1.95;0.70;;;5.80;77.80;;;;;;5074589;28;20438;-71
2021/04/15 03:04:38;;;;;;;1.35;0.70;;;5.80;77.80;;;;;;5074652;28;20105;-70
2021/04/15 03:07:05;;;;;;;0.75;0.63;;;5.90;77.90;;;;;;5075769;28;20078;-69
2021/04/15 03:09:34;;;;;;;1.65;0.50;;;5.90;78.00;;;;;;5075748;28;20391;-70
2021/04/15 03:12:29;;;;;;;1.63;0.70;;;5.90;78.00;;;;;;5074370;28;20035;-70
2021/04/15 03:15:07;;;;;;;2.05;0.60;;;5.90;78.00;;;;;;5074970;28;20443;-70
2021/04/15 03:17:36;;;;;;;1.50;0.50;;;5.80;77.90;;;;;;5074372;28;20029;-70
2021/04/15 03:20:10;;;;;;;1.02;0.73;;;5.80;78.00;;;;;;5075531;28;20067;-70
2021/04/15 03:23:07;;;;;;;1.00;0.55;;;5.60;78.10;;;;;;5073994;28;20434;-70
2021/04/15 03:25:33;;;;;;;0.95;0.50;;;5.50;78.10;;;;;;5075557;28;20104;-70
2021/04/15 03:28:08;;;;;;;2.35;1.02;;;5.40;78.10;;;;;;5074169;28;20458;-70
2021/04/15 03:31:01;;;;;;;1.83;0.50;;;5.40;78.40;;;;;;5074087;28;20036;-70
2021/04/15 03:33:39;;;;;;;1.50;0.57;;;5.30;78.50;;;;;;5075399;28;20094;-70
2021/04/15 03:36:21;;;;;;;1.38;0.60;;;5.30;78.60;;;;;;5075803;28;20376;-70
2021/04/15 03:39:01;;;;;;;0.50;0.50;;;5.20;78.70;;;;;;5075250;28;20060;-70
2021/04/15 03:41:39;;;;;;;1.20;0.60;;;5.20;78.70;;;;;;5075493;28;20033;-70
2021/04/15 03:44:17;;;;;;;1.60;0.68;;;5.10;78.70;;;;;;5075739;28;20052;-70
2021/04/15 03:46:47;;;;;;;1.60;0.60;;;5.00;78.80;;;;;;5073756;28;20032;-70
2021/04/15 03:49:29;;;;;;;1.30;0.63;;;5.00;79.00;;;;;;5074289;28;20028;-70
2021/04/15 03:52:06;;;;;;;1.15;0.45;;;4.90;79.70;;;;;;5074950;28;20387;-70
2021/04/15 03:54:38;;;;;;;0.90;0.60;;;4.90;79.10;;;;;;5075060;28;20035;-70
2021/04/15 03:57:09;;;;;;;0.68;0.63;;;4.90;79.10;;;;;;5075076;28;20111;-70
2021/04/15 03:59:47;;;;;;;0.65;0.60;;;4.90;79.10;;;;;;5073714;28;20028;-69
2021/04/15 04:02:22;;;;;;;1.20;0.70;;;4.90;79.10;;;;;;5074837;28;20132;-69
2021/04/15 04:05:02;;;;;;;2.13;0.90;;;4.90;79.10;;;;;;5073783;28;20060;-69
2021/04/15 04:07:47;;;;;;;1.40;0.70;;;4.90;79.10;;;;;;5073264;28;20479;-70
2021/04/15 04:10:21;;;;;;;0.77;0.77;;;4.80;79.10;;;;;;5073495;28;20090;-70
2021/04/15 04:13:15;;;;;;;1.10;0.82;;;4.90;79.10;;;;;;5073330;28;20021;-70
2021/04/15 04:15:46;;;;;;;1.50;0.82;;;4.90;79.10;;;;;;5073306;28;20016;-70
2021/04/15 04:18:19;;;;;;;1.33;0.70;;;4.80;79.00;;;;;;5074536;28;20028;-70
2021/04/15 04:20:45;;;;;;;;;;;4.80;79.00;;;;;;5073532;28;20017;-69
2021/04/15 04:23:37;;;;;;;1.02;0.73;;;4.80;79.10;;;;;;5074375;28;19908;-69
2021/04/15 04:26:20;;;;;;;1.13;0.70;;;4.70;79.10;;;;;;5074384;28;20024;-70
2021/04/15 04:28:51;;;;;;;0.45;0.45;;;4.60;79.10;;;;;;5073144;28;20443;-70
2021/04/15 04:31:27;;;;;;;3.38;1.00;;;4.60;79.20;;;;;;5074350;28;20049;-69
2021/04/15 04:33:55;;;;;;;1.50;1.35;;;4.60;79.30;;;;;;5072939;28;20012;-70
2021/04/15 04:36:24;;;;;;;1.70;1.27;;;4.60;79.30;;;;;;5074069;28;20472;-70
2021/04/15 04:38:56;;;;;;;2.20;1.60;;;4.60;79.30;;;;;;5074003;28;20017;-70
2021/04/15 04:41:30;;;;;;;1.77;1.50;;;4.60;79.40;;;;;;5072675;28;20074;-69
2021/04/15 04:44:10;;;;;;;1.85;1.40;;;4.50;79.40;;;;;;5072607;28;20029;-70
2021/04/15 04:46:47;;;;;;;1.77;1.17;;;4.60;79.40;;;;;;5072597;28;20067;-69
2021/04/15 04:49:28;;;;;;;2.30;1.17;;;4.50;79.30;;;;;;5073776;28;20120;-69
2021/04/15 04:51:57;;;;;;;1.40;1.25;;;4.50;79.20;;;;;;5072561;28;20126;-70
2021/04/15 04:54:24;;;;;;;1.70;1.30;;;4.50;79.60;;;;;;5073798;28;20019;-70
2021/04/15 04:56:59;;;;;;;3.85;1.45;;;4.50;78.90;;;;;;5072251;28;20021;-70
2021/04/15 04:59:30;;;;;;;1.92;1.50;;;4.50;78.90;;;;;;5073746;28;20032;-69
2021/04/15 05:01:56;;;;;;;2.35;1.70;;;4.50;78.90;;;;;;5073351;28;20480;-69
2021/04/15 05:04:29;;;;;;;2.33;1.70;;;4.50;78.90;;;;;;5072052;28;20115;-70
2021/04/15 05:07:04;;;;;;;2.58;1.33;;;4.50;79.00;;;;;;5071922;28;20438;-70
2021/04/15 05:09:32;;;;;;;3.63;1.40;;;4.60;79.10;;;;;;5073211;28;20055;-70
2021/04/15 05:11:59;;;;;;;2.28;1.77;;;4.60;79.10;;;;;;5071880;28;20364;-70
2021/04/15 05:14:27;;;;;;;2.20;1.70;;;4.70;79.10;;;;;;5071858;28;20016;-70
2021/04/15 05:17:03;;;;;;;1.98;1.58;;;4.80;79.10;;;;;;5071828;28;20017;-69
2021/04/15 05:19:30;;;;;;;2.10;1.90;;;4.90;79.10;;;;;;5073239;28;20012;-69
2021/04/15 05:21:59;;;;;;;2.90;1.95;;;4.90;79.10;;;;;;5073120;28;20028;-69
2021/04/15 05:24:57;;;;;;;2.45;1.85;;;5.00;78.90;;;;;;5071798;28;20425;-70
2021/04/15 05:27:25;;;;;;;4.00;2.50;;;5.10;79.00;;;;;;5054426;28;20140;-69
2021/04/15 05:30:14;;;;;;;4.53;2.15;;;5.10;78.90;;;;;;5071704;28;20529;-70
2021/04/15 05:32:42;;;;;;;5.32;2.63;;;5.10;78.70;;;;;;5072957;28;20053;-69
2021/04/15 05:35:11;;;;;;;3.53;2.28;;;5.20;78.80;;;;;;5073012;28;20078;-70
2021/04/15 05:37:37;;;;;;;4.07;2.00;;;5.20;78.70;;;;;;5071580;28;20140;-70
2021/04/15 05:40:03;;;;;;;3.53;2.30;;;5.30;78.80;;;;;;5072819;28;20492;-70
2021/04/15 05:43:05;;;;;;;3.17;2.03;;;5.30;78.80;;;;;;5071655;28;20119;-70
2021/04/15 05:45:33;;;;;;;2.78;2.20;;;5.40;78.80;;;;;;5072858;28;20112;-70
2021/04/15 05:48:03;;;;;;;3.80;2.22;;;5.40;78.70;;;;;;5072733;28;20372;-69
2021/04/15 05:50:44;;;;;;;4.03;2.35;;;5.50;78.70;;;;;;5073269;28;20086;-69
2021/04/15 05:53:33;;;;;;;3.53;2.10;;;5.60;78.70;;;;;;5071390;28;20419;-70
2021/04/15 05:56:16;;;;;;;3.42;1.88;;;5.60;78.50;;;;;;5072647;28;20472;-70
2021/04/15 05:59:14;;;;;;;2.55;1.92;;;5.70;79.10;;;;;;5071734;28;20039;-70
2021/04/15 06:02:05;;;;;;;4.13;2.20;;;5.80;78.30;;;;;;5072770;28;20036;-70
2021/04/15 06:04:38;;;;;;;3.78;2.38;;;5.80;78.20;;;;;;5072337;28;20041;-69
2021/04/15 06:07:05;;;;;;;;;;;5.90;78.20;;;;;;5073126;28;20025;-70
2021/04/15 06:09:31;;;;;;;5.65;2.00;;;5.90;78.20;;;;;;5071319;28;19919;-70
2021/04/15 06:12:03;;;;;;;3.35;1.85;;;5.90;78.10;;;;;;5073714;28;20036;-69
2021/04/15 06:14:41;;;;;;;2.05;1.58;;;6.00;78.10;;;;;;5075945;28;20071;-70
2021/04/15 06:17:33;;;;;;;4.28;1.70;;;6.10;78.10;;;;;;5076903;28;20103;-70
2021/04/15 06:20:10;;;;;;;4.15;1.85;;;6.10;77.90;;;;;;5075433;28;20170;-70
2021/04/15 06:22:42;;;;;;;5.93;1.83;;;6.20;77.80;;;;;;5075417;28;20036;-69
2021/04/15 06:25:16;;;;;;;2.47;1.50;;;6.30;77.70;;;;;;5076937;28;20058;-69
2021/04/15 06:27:44;;;;;;;3.60;1.80;;;6.40;77.60;;;;;;5075187;28;20030;-70
2021/04/15 06:30:46;;;;;;;2.63;1.60;;;6.40;77.40;;;;;;5075395;28;20388;-70
2021/04/15 06:33:16;;;;;;;3.67;1.63;;;6.50;77.20;;;;;;5070455;28;20060;-69
2021/04/15 06:35:44;;;;;;;4.45;1.55;;;6.60;77.10;;;;;;5075180;28;20052;-69
2021/04/15 06:38:36;;;;;;;2.92;1.45;;;6.60;76.90;;;;;;5075164;28;20029;-69
2021/04/15 06:41:46;;;;;;;2.40;1.58;;;6.50;76.90;;;;;;5076276;28;20054;-68
2021/04/15 06:44:23;;;;;;;4.15;1.80;;;6.50;77.00;;;;;;5057206;28;20182;-68
2021/04/15 06:47:00;;;;;;;2.92;2.00;;;6.40;77.10;;;;;;5057257;28;20040;-69
2021/04/15 06:49:39;;;;;;;3.72;2.25;;;6.30;77.20;;;;;;5073877;28;20029;-69
2021/04/15 06:52:34;;;;;;;2.28;1.70;;;6.30;77.40;;;;;;5057308;28;20194;-69
2021/04/15 06:55:24;;;;;;;4.30;1.73;;;6.30;77.50;;;;;;5073901;28;20036;-69
2021/04/15 06:58:30;;;;;;;2.08;1.70;;;6.20;77.40;;;;;;5073829;28;20090;-69
2021/04/15 07:01:06;;;;;;;4.25;1.80;;;6.20;77.60;;;;;;5030189;28;20043;-69
2021/04/15 07:03:59;;;;;;;2.88;1.98;;;6.10;77.70;;;;;;5057127;28;20055;-69
2021/04/15 07:06:53;;;;;;;4.75;1.90;;;6.10;77.90;;;;;;5056814;28;20044;-69
2021/04/15 07:09:28;;;;;;;;;;;6.10;78.00;;;;;;5068645;28;20037;-70
2021/04/15 07:12:08;;;;;;;3.42;2.13;;;6.10;78.10;;;;;;5073570;28;20322;-69
2021/04/15 07:14:55;;;;;;;3.67;1.77;;;6.00;78.00;;;;;;5073645;28;20041;-68
2021/04/15 07:18:08;;;;;;;4.72;1.48;;;6.00;78.00;;;;;;5073694;28;20094;-69
2021/04/15 07:20:53;;;;;;;1.67;1.42;;;6.00;78.10;;;;;;5075116;28;20400;-69
2021/04/15 07:23:29;;;;;;;4.13;2.10;;;6.00;77.90;;;;;;5074717;28;20369;-68
2021/04/15 07:26:13;;;;;;;3.53;1.30;;;6.10;77.90;;;;;;5073918;28;20033;-68
2021/04/15 07:29:16;;;;;;;1.48;1.25;;;6.20;77.70;;;;;;5073913;28;20502;-69
2021/04/15 07:31:45;;;;;;;2.75;1.23;;;6.40;77.50;;;;;;5074922;28;20048;-69
2021/04/15 07:34:48;;;;;;;1.52;1.17;;;6.50;77.30;;;;;;5073852;28;20384;-69
2021/04/15 07:37:41;;;;;;;2.63;1.20;;;6.60;77.00;;;;;;5075196;28;20056;-70
2021/04/15 07:40:20;;;;;;;3.20;1.35;;;6.60;76.60;;;;;;5073774;28;20079;-69
2021/04/15 07:43:17;;;;;;;2.50;1.70;;;6.70;76.50;;;;;;5073525;28;20033;-69
2021/04/15 07:46:02;;;;;;;3.65;1.50;;;6.70;76.40;;;;;;5073572;28;20483;-70
2021/04/15 07:48:37;;;;;;;2.20;1.33;;;6.70;76.40;;;;;;5069630;28;20112;-70
2021/04/15 07:51:22;;;;;;;3.72;1.55;;;6.70;76.40;;;;;;5073247;28;20039;-70
2021/04/15 07:54:05;;;;;;;3.65;1.48;;;6.80;76.50;;;;;;5073235;28;20032;-69
2021/04/15 07:56:40;;;;;;;1.63;1.30;;;6.90;76.40;;;;;;5073389;28;20399;-68
2021/04/15 07:59:25;;;;;;;3.15;1.70;;;7.00;76.10;;;;;;5073146;28;20123;-68
2021/04/15 08:02:20;;;;;;;1.38;1.20;;;7.10;75.90;;;;;;5074751;28;20035;-68
2021/04/15 08:05:09;;;;;;;3.13;1.50;;;7.20;75.80;;;;;;5072511;28;20047;-68
2021/04/15 08:07:48;;;;;;;2.35;1.40;;;7.30;75.60;;;;;;5074451;28;20028;-68
2021/04/15 08:10:24;;;;;;;1.67;1.40;;;7.40;75.30;;;;;;5074804;28;20515;-68
2021/04/15 08:12:54;;;;;;;2.47;1.50;;;7.50;75.10;;;;;;5074327;28;20471;-68
2021/04/15 08:15:32;;;;;;;2.65;1.48;;;7.50;74.90;;;;;;5074382;28;20025;-68
2021/04/15 08:18:10;;;;;;;2.75;1.40;;;7.50;74.80;;;;;;5072980;28;20036;-68
2021/04/15 08:20:38;;;;;;;3.55;1.38;;;7.50;74.60;;;;;;5072777;28;20034;-69
2021/04/15 08:23:19;;;;;;;2.08;1.30;;;7.50;74.60;;;;;;5074142;28;20036;-68
2021/04/15 08:26:12;;;;;;;2.67;1.67;;;7.50;74.60;;;;;;5072567;28;20028;-68
2021/04/15 08:28:44;;;;;;;2.97;1.40;;;7.50;74.50;;;;;;5072628;28;20041;-68
2021/04/15 08:31:51;;;;;;;1.05;0.95;;;7.60;74.20;;;;;;5073633;28;20409;-69
2021/04/15 08:34:39;;;;;;;3.08;1.48;;;7.60;74.40;;;;;;5072359;28;20201;-68
2021/04/15 08:37:32;;;;;;;2.00;1.10;;;7.60;73.80;;;;;;5072559;28;20390;-68
2021/04/15 08:40:08;;;;;;;2.53;1.27;;;7.60;73.70;;;;;;5072407;28;20044;-68
2021/04/15 08:43:12;;;;;;;1.30;1.17;;;7.60;73.70;;;;;;5073602;28;20029;-68
2021/04/15 08:46:18;;;;;;;4.18;1.00;;;7.60;73.60;;;;;;5073477;28;20097;-68
2021/04/15 08:49:02;;;;;;;3.17;1.40;;;7.60;73.30;;;;;;5073523;28;20090;-69
2021/04/15 08:51:37;;;;;;;4.07;1.50;;;7.60;73.40;;;;;;5073583;28;20119;-68
2021/04/15 08:54:18;;;;;;;2.20;1.42;;;7.70;73.40;;;;;;5072113;28;20123;-68
2021/04/15 08:57:05;;;;;;;2.30;1.38;;;7.70;73.10;;;;;;5072004;28;20425;-69
2021/04/15 08:59:40;;;;;;;2.70;1.23;;;7.80;72.90;;;;;;5071890;28;20063;-68
2021/04/15 09:02:24;;;;;;;4.28;1.27;;;7.90;72.70;;;;;;5072040;28;20049;-69
2021/04/15 09:05:01;;;;;;;3.40;1.00;;;8.00;72.20;;;;;;5071761;28;20123;-68
2021/04/15 09:07:48;;;;;;;2.80;1.17;;;8.10;72.00;;;;;;5071469;28;20121;-68
2021/04/15 09:10:23;;;;;;;2.20;1.10;;;8.10;71.70;;;;;;5072925;28;20510;-69
2021/04/15 09:13:05;;;;;;;1.00;0.90;;;8.30;71.70;;;;;;5072859;28;20024;-69
2021/04/15 09:15:52;;;;;;;2.70;1.10;;;8.40;71.40;;;;;;5072915;28;20060;-68
2021/04/15 09:18:26;;;;;;;1.95;0.88;;;8.50;70.70;;;;;;5072856;28;20052;-69
2021/04/15 09:21:13;;;;;;;1.40;1.00;;;8.40;70.50;;;;;;5072884;28;20036;-68
2021/04/15 09:23:56;;;;;;;1.88;0.90;;;8.40;70.30;;;;;;5071451;28;20035;-69
2021/04/15 09:26:59;;;;;;;1.95;1.10;;;8.50;70.20;;;;;;5071502;28;20050;-70
2021/04/15 09:29:36;;;;;;;2.17;1.00;;;8.50;69.50;;;;;;5071395;28;20037;-69
2021/04/15 09:32:14;;;;;;;2.20;1.13;;;8.50;69.60;;;;;;5072574;28;20056;-69
2021/04/15 09:35:01;;;;;;;1.77;1.15;;;8.60;69.30;;;;;;5072778;28;20032;-69
2021/04/15 09:37:53;;;;;;;1.55;1.20;;;8.50;69.20;;;;;;5073117;28;20109;-69
2021/04/15 09:40:39;;;;;;;1.27;1.00;;;8.50;68.70;;;;;;5071650;28;20044;-68
2021/04/15 09:43:14;;;;;;;2.17;0.90;;;8.40;68.90;;;;;;5072860;28;20025;-69
2021/04/15 09:45:43;;;;;;;3.33;1.23;;;8.30;68.90;;;;;;5071118;28;20106;-69
2021/04/15 09:48:35;;;;;;;1.52;1.02;;;8.30;69.00;;;;;;5070407;28;20040;-69
2021/04/15 09:51:20;;;;;;;2.15;1.30;;;8.30;69.30;;;;;;5071075;28;20063;-68
2021/04/15 09:54:08;;;;;;;1.90;1.27;;;8.30;69.30;;;;;;5073097;28;20040;-69
2021/04/15 09:56:39;;;;;;;1.48;1.23;;;8.40;69.40;;;;;;5070903;28;20510;-68
2021/04/15 09:59:15;;;;;;;1.25;1.15;;;8.40;69.20;;;;;;5072324;28;20108;-69
2021/04/15 10:01:47;;;;;;;1.60;1.30;;;8.50;69.10;;;;;;5070766;28;20060;-69
2021/04/15 10:04:26;;;;;;;2.38;1.40;;;8.60;69.10;;;;;;5072355;28;20476;-69
2021/04/15 10:06:59;;;;;;;1.85;1.20;;;8.80;69.00;;;;;;5072209;28;20090;-69
2021/04/15 10:09:27;;;;;;;2.22;1.10;;;9.00;68.60;;;;;;5072019;28;20412;-69
2021/04/15 10:12:13;;;;;;;2.00;1.20;;;9.10;68.10;;;;;;5070726;28;20484;-69
2021/04/15 10:15:01;;;;;;;1.23;1.13;;;9.20;67.70;;;;;;5071033;28;20063;-69
2021/04/15 10:17:37;;;;;;;1.35;1.25;;;9.30;67.70;;;;;;5072264;28;20174;-69
2021/04/15 10:20:09;;;;;;;2.45;1.30;;;9.40;67.60;;;;;;5072305;28;20032;-69
2021/04/15 10:23:05;;;;;;;3.50;1.40;;;9.50;67.50;;;;;;5072627;28;20036;-69
2021/04/15 10:25:45;;;;;;;1.52;1.25;;;9.70;67.90;;;;;;5070867;28;20172;-69
2021/04/15 10:28:36;;;;;;;1.20;1.00;;;9.80;67.00;;;;;;5072161;28;20504;-69
2021/04/15 10:31:08;;;;;;;1.77;1.42;;;9.90;66.80;;;;;;5070773;28;20029;-68
2021/04/15 10:34:00;;;;;;;3.15;1.30;;;10.00;66.40;;;;;;5070644;28;20086;-68
2021/04/15 10:36:46;;;;;;;1.50;1.08;;;10.10;66.10;;;;;;5070597;28;20024;-68
2021/04/15 10:39:30;;;;;;;1.20;1.00;;;10.10;65.80;;;;;;5072448;28;20020;-69
2021/04/15 10:42:26;;;;;;;1.10;1.00;;;10.10;65.70;;;;;;5070857;28;20069;-68
2021/04/15 10:45:27;;;;;;;1.50;1.20;;;10.10;65.70;;;;;;5072424;28;20475;-68
2021/04/15 10:48:05;;;;;;;1.90;0.98;;;10.10;65.50;;;;;;5070689;28;20033;-69
2021/04/15 10:50:50;;;;;;;2.42;1.33;;;10.20;65.50;;;;;;5071944;28;20372;-70
2021/04/15 10:53:47;;;;;;;2.25;1.20;;;10.20;65.10;;;;;;5072129;28;20025;-68
2021/04/15 10:56:25;;;;;;;1.20;1.10;;;10.30;65.00;;;;;;5070425;28;20020;-69
2021/04/15 10:59:01;;;;;;;1.25;1.13;;;10.40;64.70;;;;;;5072278;28;20392;-69
2021/04/15 11:01:33;;;;;;;1.58;1.30;;;10.40;64.40;;;;;;5075420;28;20035;-69
2021/04/15 11:04:08;;;;;;;3.35;1.00;;;10.50;63.80;;;;;;5075462;28;20073;-69
2021/04/15 11:06:44;;;;;;;2.45;1.45;;;10.50;63.60;;;;;;5075458;28;20441;-69
2021/04/15 11:09:34;;;;;;;1.63;1.30;;;10.60;63.50;;;;;;5074283;28;20028;-69
2021/04/15 11:12:14;;;;;;;1.30;1.10;;;10.80;62.50;;;;;;5075499;28;20024;-69
2021/04/15 11:14:43;;;;;;;1.48;1.20;;;11.00;62.50;;;;;;5074662;28;20419;-69
2021/04/15 11:17:27;;;;;;;3.75;1.27;;;11.10;61.90;;;;;;5074314;28;20026;-70
2021/04/15 11:20:11;;;;;;;;;;;11.20;61.40;;;;;;5074594;28;20115;-69
2021/04/15 11:22:39;;;;;;;5.47;1.17;;;11.20;61.10;;;;;;5076072;28;19950;-70
2021/04/15 11:25:26;;;;;;;2.15;1.30;;;11.20;61.40;;;;;;5075327;28;20103;-69
2021/04/15 11:27:53;;;;;;;1.75;1.10;;;11.10;61.00;;;;;;5073996;28;20020;-69
2021/04/15 11:30:39;;;;;;;1.55;1.10;;;11.10;61.20;;;;;;5074929;28;20360;-70
2021/04/15 11:33:06;;;;;;;1.52;1.17;;;11.10;60.80;;;;;;5073552;28;20055;-70
2021/04/15 11:35:33;;;;;;;2.15;1.30;;;11.10;60.40;;;;;;5074158;28;20024;-70
2021/04/15 11:38:24;;;;;;;2.08;1.20;;;11.30;59.90;;;;;;5075465;28;20025;-70
2021/04/15 11:40:52;;;;;;;2.38;1.50;;;11.50;59.60;;;;;;5073700;28;20016;-70
2021/04/15 11:43:35;;;;;;;1.30;1.20;;;11.60;58.70;;;;;;5073321;28;20039;-70
2021/04/15 11:46:28;;;;;;;1.52;1.15;;;11.70;58.10;;;;;;5073420;28;20419;-70
2021/04/15 11:49:16;;;;;;;1.87;0.70;;;11.80;57.40;;;;;;5073298;28;20039;-70
2021/04/15 11:52:11;;;;;;;1.20;1.10;;;11.90;58.80;;;;;;5074751;28;20035;-70
2021/04/15 11:54:44;;;;;;;1.55;1.02;;;12.10;58.10;;;;;;5073353;28;20028;-70
2021/04/15 11:57:18;;;;;;;4.10;1.42;;;12.20;56.80;;;;;;5073463;28;20113;-70
2021/04/15 12:00:04;;;;;;;3.05;1.30;;;12.20;54.80;;;;;;5074975;28;20108;-69
2021/04/15 12:02:38;;;;;;;1.20;1.10;;;12.00;54.10;;;;;;5074642;28;20074;-70
2021/04/15 12:05:18;;;;;;;1.15;1.00;;;11.80;54.80;;;;;;5073233;28;20096;-70
2021/04/15 12:08:12;;;;;;;2.45;1.20;;;11.60;54.50;;;;;;5073098;28;20065;-70
2021/04/15 12:11:01;;;;;;;3.10;1.30;;;11.50;54.50;;;;;;5073701;28;20107;-69
2021/04/15 12:13:39;;;;;;;1.75;1.33;;;11.40;53.20;;;;;;5073204;28;20047;-70
2021/04/15 12:16:26;;;;;;;1.92;1.00;;;11.40;53.80;;;;;;5072977;28;20021;-71
2021/04/15 12:19:13;;;;;;;4.25;1.30;;;11.30;53.50;;;;;;5072957;28;20046;-70
2021/04/15 12:22:03;;;;;;;1.95;0.90;;;11.30;53.50;;;;;;5074213;28;20523;-70
2021/04/15 12:24:35;;;;;;;0.75;0.75;;;11.40;53.70;;;;;;5074024;28;20024;-70
2021/04/15 12:27:08;;;;;;;1.15;0.95;;;11.60;55.50;;;;;;5074004;28;20090;-70
2021/04/15 12:29:39;;;;;;;2.05;1.50;;;11.80;56.20;;;;;;5074186;28;20488;-70
2021/04/15 12:32:27;;;;;;;1.63;1.45;;;12.00;53.90;;;;;;5073964;28;20044;-70
2021/04/15 12:35:16;;;;;;;3.25;1.20;;;12.10;53.10;;;;;;5074038;28;20551;-70
2021/04/15 12:38:27;;;;;;;2.67;1.30;;;12.30;53.00;;;;;;5073661;28;20021;-71
2021/04/15 12:41:01;;;;;;;1.75;1.33;;;12.50;52.30;;;;;;5071476;28;20044;-70
2021/04/15 12:43:30;;;;;;;1.90;1.52;;;12.70;52.20;;;;;;5071572;28;20432;-70
2021/04/15 12:46:14;;;;;;;2.17;1.60;;;12.80;51.80;;;;;;5054746;28;20531;-70
2021/04/15 12:48:47;;;;;;;1.40;1.20;;;12.80;51.50;;;;;;5072008;28;20029;-70
2021/04/15 12:51:20;;;;;;;3.00;1.40;;;12.80;51.70;;;;;;5054493;28;20499;-70
2021/04/15 12:53:47;;;;;;;2.13;1.30;;;12.70;51.40;;;;;;5054444;28;20070;-70
2021/04/15 12:56:24;;;;;;;1.52;1.30;;;12.60;51.20;;;;;;5071282;28;20028;-70
2021/04/15 12:58:54;;;;;;;1.80;1.20;;;12.30;49.20;;;;;;5071767;28;20044;-70
2021/04/15 13:01:20;;;;;;;1.50;1.20;;;12.00;49.90;;;;;;5071602;28;20030;-70
2021/04/15 13:03:46;;;;;;;4.20;1.52;;;11.80;50.20;;;;;;5071345;28;20553;-70
2021/04/15 13:06:20;;;;;;;1.42;1.33;;;11.70;49.80;;;;;;5054694;28;20140;-70
2021/04/15 13:08:56;;;;;;;1.58;1.38;;;11.60;49.50;;;;;;5054240;28;20345;-70
2021/04/15 13:11:21;;;;;;;2.42;1.30;;;11.50;49.60;;;;;;5072047;28;20547;-70
2021/04/15 13:13:59;;;;;;;1.42;1.33;;;11.40;49.80;;;;;;5071791;28;20056;-70
2021/04/15 13:16:34;;;;;;;1.23;1.13;;;11.40;49.60;;;;;;5072119;28;20388;-70
2021/04/15 13:19:09;;;;;;;3.13;1.33;;;11.40;50.20;;;;;;5073037;28;20028;-70
2021/04/15 13:22:15;;;;;;;2.15;1.25;;;11.50;50.20;;;;;;5070789;28;20028;-70
2021/04/15 13:24:43;;;;;;;2.38;1.05;;;11.60;50.10;;;;;;5071468;28;20060;-71
2021/04/15 13:27:38;;;;;;;1.33;1.20;;;11.60;50.20;;;;;;5071773;28;20135;-70
2021/04/15 13:30:29;;;;;;;1.67;1.17;;;11.80;49.90;;;;;;5072750;28;20403;-69
2021/04/15 13:33:09;;;;;;;1.33;1.00;;;11.90;49.90;;;;;;5071420;28;20060;-70
2021/04/15 13:35:44;;;;;;;2.33;1.23;;;12.00;50.00;;;;;;5071504;28;20016;-69
2021/04/15 13:38:31;;;;;;;2.75;1.10;;;12.00;49.70;;;;;;5071549;28;20064;-70
2021/04/15 13:41:02;;;;;;;1.85;1.00;;;12.20;49.60;;;;;;5072642;28;20028;-69
2021/04/15 13:44:06;;;;;;;2.08;1.08;;;12.40;49.70;;;;;;5072701;28;20070;-69
2021/04/15 13:46:44;;;;;;;1.55;1.10;;;12.70;49.60;;;;;;5060194;28;20043;-70
2021/04/15 13:49:12;;;;;;;1.67;1.20;;;13.10;48.20;;;;;;5072693;28;20077;-70
2021/04/15 13:52:27;;;;;;;2.97;1.08;;;13.20;47.50;;;;;;5071752;28;20498;-70
2021/04/15 13:54:53;;;;;;;1.17;1.00;;;13.20;47.00;;;;;;5072099;28;20442;-70